sensor_id;sensor_type;location;lat;lon;timestamp;P1;durP1;ratioP1;P2;durP2;ratioP2
66669;SDS011;53568;52.164;4.472;2023-10-09T00:00:23;10.35;;;10.27;;
66669;SDS011;53568;52.164;4.472;2023-10-09T00:03:01;9.60;;;9.54;;
66669;SDS011;53568;52.164;4.472;2023-10-09T00:05:28;9.32;;;9.32;;
66669;SDS011;53568;52.164;4.472;2023-10-09T00:08:10;8.99;;;8.99;;
66669;SDS011;53568;52.164;4.472;2023-10-09T00:10:41;8.64;;;8.64;;
66669;SDS011;53568;52.164;4.472;2023-10-09T00:13:14;8.15;;;8.15;;
66669;SDS011;53568;52.164;4.472;2023-10-09T00:15:40;7.79;;;7.78;;
66669;SDS011;53568;52.164;4.472;2023-10-09T00:18:07;7.45;;;7.44;;
66669;SDS011;53568;52.164;4.472;2023-10-09T00:20:37;7.42;;;7.40;;
66669;SDS011;53568;52.164;4.472;2023-10-09T00:23:08;7.63;;;7.61;;
66669;SDS011;53568;52.164;4.472;2023-10-09T00:25:49;7.42;;;7.36;;
66669;SDS011;53568;52.164;4.472;2023-10-09T00:28:33;7.02;;;7.02;;
66669;SDS011;53568;52.164;4.472;2023-10-09T00:31:00;6.90;;;6.87;;
66669;SDS011;53568;52.164;4.472;2023-10-09T00:33:30;7.49;;;7.44;;
66669;SDS011;53568;52.164;4.472;2023-10-09T00:35:55;7.00;;;6.97;;
66669;SDS011;53568;52.164;4.472;2023-10-09T00:38:23;7.19;;;7.17;;
66669;SDS011;53568;52.164;4.472;2023-10-09T00:40:50;6.81;;;6.80;;
66669;SDS011;53568;52.164;4.472;2023-10-09T00:43:35;6.95;;;6.95;;
66669;SDS011;53568;52.164;4.472;2023-10-09T00:46:08;7.54;;;7.49;;
66669;SDS011;53568;52.164;4.472;2023-10-09T00:48:49;7.27;;;7.26;;
66669;SDS011;53568;52.164;4.472;2023-10-09T00:51:19;6.86;;;6.83;;
66669;SDS011;53568;52.164;4.472;2023-10-09T00:53:52;7.28;;;7.22;;
66669;SDS011;53568;52.164;4.472;2023-10-09T00:56:22;6.91;;;6.85;;
66669;SDS011;53568;52.164;4.472;2023-10-09T00:58:51;7.08;;;7.07;;
66669;SDS011;53568;52.164;4.472;2023-10-09T01:01:26;7.31;;;7.30;;
66669;SDS011;53568;52.164;4.472;2023-10-09T01:04:06;7.16;;;7.12;;
66669;SDS011;53568;52.164;4.472;2023-10-09T01:06:43;7.10;;;7.06;;
66669;SDS011;53568;52.164;4.472;2023-10-09T01:09:11;7.36;;;7.31;;
66669;SDS011;53568;52.164;4.472;2023-10-09T01:11:39;7.30;;;7.22;;
66669;SDS011;53568;52.164;4.472;2023-10-09T01:14:29;7.18;;;7.07;;
66669;SDS011;53568;52.164;4.472;2023-10-09T01:16:56;7.29;;;7.21;;
66669;SDS011;53568;52.164;4.472;2023-10-09T01:19:22;7.05;;;6.95;;
66669;SDS011;53568;52.164;4.472;2023-10-09T01:21:56;7.22;;;7.19;;
66669;SDS011;53568;52.164;4.472;2023-10-09T01:24:29;7.30;;;7.30;;
66669;SDS011;53568;52.164;4.472;2023-10-09T01:26:57;7.26;;;7.24;;
66669;SDS011;53568;52.164;4.472;2023-10-09T01:29:24;6.99;;;6.93;;
66669;SDS011;53568;52.164;4.472;2023-10-09T01:31:53;7.25;;;7.17;;
66669;SDS011;53568;52.164;4.472;2023-10-09T01:34:21;7.36;;;7.33;;
66669;SDS011;53568;52.164;4.472;2023-10-09T01:36:55;7.30;;;7.23;;
66669;SDS011;53568;52.164;4.472;2023-10-09T01:39:21;7.47;;;7.39;;
66669;SDS011;53568;52.164;4.472;2023-10-09T01:42:05;7.21;;;7.16;;
66669;SDS011;53568;52.164;4.472;2023-10-09T01:44:31;7.12;;;7.10;;
66669;SDS011;53568;52.164;4.472;2023-10-09T01:49:36;7.51;;;7.46;;
66669;SDS011;53568;52.164;4.472;2023-10-09T01:52:06;7.29;;;7.22;;
66669;SDS011;53568;52.164;4.472;2023-10-09T01:54:35;7.41;;;7.36;;
66669;SDS011;53568;52.164;4.472;2023-10-09T01:57:12;7.64;;;7.59;;
66669;SDS011;53568;52.164;4.472;2023-10-09T01:59:38;7.27;;;7.17;;
66669;SDS011;53568;52.164;4.472;2023-10-09T02:02:08;7.35;;;7.26;;
66669;SDS011;53568;52.164;4.472;2023-10-09T02:05:06;7.31;;;7.25;;
66669;SDS011;53568;52.164;4.472;2023-10-09T02:07:49;7.80;;;7.73;;
66669;SDS011;53568;52.164;4.472;2023-10-09T02:10:19;7.78;;;7.70;;
66669;SDS011;53568;52.164;4.472;2023-10-09T02:12:50;7.75;;;7.68;;
66669;SDS011;53568;52.164;4.472;2023-10-09T02:15:23;7.60;;;7.55;;
66669;SDS011;53568;52.164;4.472;2023-10-09T02:18:20;7.55;;;7.52;;
66669;SDS011;53568;52.164;4.472;2023-10-09T02:21:05;7.11;;;7.07;;
66669;SDS011;53568;52.164;4.472;2023-10-09T02:23:32;7.28;;;7.24;;
66669;SDS011;53568;52.164;4.472;2023-10-09T02:26:05;7.75;;;7.69;;
66669;SDS011;53568;52.164;4.472;2023-10-09T02:28:32;8.05;;;7.96;;
66669;SDS011;53568;52.164;4.472;2023-10-09T02:31:10;8.11;;;8.03;;
66669;SDS011;53568;52.164;4.472;2023-10-09T02:33:37;7.39;;;7.37;;
66669;SDS011;53568;52.164;4.472;2023-10-09T02:36:05;8.02;;;7.96;;
66669;SDS011;53568;52.164;4.472;2023-10-09T02:38:32;7.89;;;7.77;;
66669;SDS011;53568;52.164;4.472;2023-10-09T02:41:02;7.75;;;7.66;;
66669;SDS011;53568;52.164;4.472;2023-10-09T02:43:31;8.02;;;7.93;;
66669;SDS011;53568;52.164;4.472;2023-10-09T02:46:18;8.01;;;7.94;;
66669;SDS011;53568;52.164;4.472;2023-10-09T02:48:46;8.18;;;8.07;;
66669;SDS011;53568;52.164;4.472;2023-10-09T02:51:19;7.86;;;7.78;;
66669;SDS011;53568;52.164;4.472;2023-10-09T02:53:54;8.00;;;7.98;;
66669;SDS011;53568;52.164;4.472;2023-10-09T02:56:22;8.47;;;8.44;;
66669;SDS011;53568;52.164;4.472;2023-10-09T02:59:08;7.84;;;7.82;;
66669;SDS011;53568;52.164;4.472;2023-10-09T03:01:35;8.17;;;8.17;;
66669;SDS011;53568;52.164;4.472;2023-10-09T03:04:06;7.76;;;7.75;;
66669;SDS011;53568;52.164;4.472;2023-10-09T03:06:36;7.62;;;7.61;;
66669;SDS011;53568;52.164;4.472;2023-10-09T03:09:09;8.14;;;8.14;;
66669;SDS011;53568;52.164;4.472;2023-10-09T03:11:47;8.06;;;8.03;;
66669;SDS011;53568;52.164;4.472;2023-10-09T03:14:21;8.16;;;8.13;;
66669;SDS011;53568;52.164;4.472;2023-10-09T03:16:52;8.13;;;8.03;;
66669;SDS011;53568;52.164;4.472;2023-10-09T03:19:17;8.31;;;8.25;;
66669;SDS011;53568;52.164;4.472;2023-10-09T03:21:43;8.05;;;8.02;;
66669;SDS011;53568;52.164;4.472;2023-10-09T03:24:09;8.02;;;8.02;;
66669;SDS011;53568;52.164;4.472;2023-10-09T03:26:36;8.06;;;8.06;;
66669;SDS011;53568;52.164;4.472;2023-10-09T03:29:02;8.39;;;8.37;;
66669;SDS011;53568;52.164;4.472;2023-10-09T03:31:32;8.55;;;8.53;;
66669;SDS011;53568;52.164;4.472;2023-10-09T03:34:01;8.28;;;8.26;;
66669;SDS011;53568;52.164;4.472;2023-10-09T03:36:27;7.91;;;7.80;;
66669;SDS011;53568;52.164;4.472;2023-10-09T03:38:55;8.48;;;8.38;;
66669;SDS011;53568;52.164;4.472;2023-10-09T03:41:26;8.38;;;8.33;;
66669;SDS011;53568;52.164;4.472;2023-10-09T03:43:52;8.78;;;8.73;;
66669;SDS011;53568;52.164;4.472;2023-10-09T03:46:19;8.56;;;8.54;;
66669;SDS011;53568;52.164;4.472;2023-10-09T03:48:48;8.46;;;8.46;;
66669;SDS011;53568;52.164;4.472;2023-10-09T03:51:14;8.57;;;8.56;;
66669;SDS011;53568;52.164;4.472;2023-10-09T03:53:50;8.61;;;8.57;;
66669;SDS011;53568;52.164;4.472;2023-10-09T03:56:18;8.83;;;8.79;;
66669;SDS011;53568;52.164;4.472;2023-10-09T03:58:46;8.29;;;8.26;;
66669;SDS011;53568;52.164;4.472;2023-10-09T04:01:15;8.43;;;8.42;;
66669;SDS011;53568;52.164;4.472;2023-10-09T04:04:03;9.05;;;9.00;;
66669;SDS011;53568;52.164;4.472;2023-10-09T04:06:32;9.05;;;9.02;;
66669;SDS011;53568;52.164;4.472;2023-10-09T04:09:02;8.68;;;8.63;;
66669;SDS011;53568;52.164;4.472;2023-10-09T04:11:48;8.43;;;8.41;;
66669;SDS011;53568;52.164;4.472;2023-10-09T04:14:36;8.67;;;8.63;;
66669;SDS011;53568;52.164;4.472;2023-10-09T04:17:22;8.73;;;8.71;;
66669;SDS011;53568;52.164;4.472;2023-10-09T04:19:48;8.44;;;8.42;;
66669;SDS011;53568;52.164;4.472;2023-10-09T04:22:34;8.19;;;8.12;;
66669;SDS011;53568;52.164;4.472;2023-10-09T04:25:19;8.61;;;8.58;;
66669;SDS011;53568;52.164;4.472;2023-10-09T04:27:55;8.48;;;8.47;;
66669;SDS011;53568;52.164;4.472;2023-10-09T04:30:35;8.45;;;8.45;;
66669;SDS011;53568;52.164;4.472;2023-10-09T04:33:05;8.61;;;8.59;;
66669;SDS011;53568;52.164;4.472;2023-10-09T04:35:50;8.45;;;8.43;;
66669;SDS011;53568;52.164;4.472;2023-10-09T04:38:36;8.38;;;8.32;;
66669;SDS011;53568;52.164;4.472;2023-10-09T04:41:04;8.65;;;8.59;;
66669;SDS011;53568;52.164;4.472;2023-10-09T04:43:30;8.44;;;8.43;;
66669;SDS011;53568;52.164;4.472;2023-10-09T04:45:58;8.53;;;8.53;;
66669;SDS011;53568;52.164;4.472;2023-10-09T04:48:48;8.50;;;8.45;;
66669;SDS011;53568;52.164;4.472;2023-10-09T04:51:17;8.63;;;8.60;;
66669;SDS011;53568;52.164;4.472;2023-10-09T04:53:47;8.63;;;8.59;;
66669;SDS011;53568;52.164;4.472;2023-10-09T04:56:25;8.50;;;8.48;;
66669;SDS011;53568;52.164;4.472;2023-10-09T04:58:56;8.56;;;8.52;;
66669;SDS011;53568;52.164;4.472;2023-10-09T05:01:29;8.45;;;8.40;;
66669;SDS011;53568;52.164;4.472;2023-10-09T05:04:02;8.47;;;8.46;;
66669;SDS011;53568;52.164;4.472;2023-10-09T05:06:29;8.18;;;8.13;;
66669;SDS011;53568;52.164;4.472;2023-10-09T05:09:07;8.35;;;8.30;;
66669;SDS011;53568;52.164;4.472;2023-10-09T05:11:34;8.34;;;8.31;;
66669;SDS011;53568;52.164;4.472;2023-10-09T05:14:19;8.87;;;8.73;;
66669;SDS011;53568;52.164;4.472;2023-10-09T05:16:52;8.65;;;8.56;;
66669;SDS011;53568;52.164;4.472;2023-10-09T05:19:26;8.61;;;8.52;;
66669;SDS011;53568;52.164;4.472;2023-10-09T05:22:10;8.64;;;8.58;;
66669;SDS011;53568;52.164;4.472;2023-10-09T05:24:58;8.54;;;8.50;;
66669;SDS011;53568;52.164;4.472;2023-10-09T05:27:24;8.45;;;8.42;;
66669;SDS011;53568;52.164;4.472;2023-10-09T05:30:09;8.65;;;8.53;;
66669;SDS011;53568;52.164;4.472;2023-10-09T05:32:50;8.33;;;8.26;;
66669;SDS011;53568;52.164;4.472;2023-10-09T05:35:45;8.35;;;8.20;;
66669;SDS011;53568;52.164;4.472;2023-10-09T05:38:30;8.48;;;8.31;;
66669;SDS011;53568;52.164;4.472;2023-10-09T05:41:00;8.19;;;8.11;;
66669;SDS011;53568;52.164;4.472;2023-10-09T05:43:46;8.24;;;8.11;;
66669;SDS011;53568;52.164;4.472;2023-10-09T05:46:30;8.14;;;8.06;;
66669;SDS011;53568;52.164;4.472;2023-10-09T05:49:01;7.80;;;7.73;;
66669;SDS011;53568;52.164;4.472;2023-10-09T05:51:34;8.40;;;8.28;;
66669;SDS011;53568;52.164;4.472;2023-10-09T05:54:18;8.05;;;7.96;;
66669;SDS011;53568;52.164;4.472;2023-10-09T05:57:09;8.42;;;8.32;;
66669;SDS011;53568;52.164;4.472;2023-10-09T05:59:55;8.37;;;8.31;;
66669;SDS011;53568;52.164;4.472;2023-10-09T06:02:39;8.52;;;8.46;;
66669;SDS011;53568;52.164;4.472;2023-10-09T06:05:23;8.20;;;8.11;;
66669;SDS011;53568;52.164;4.472;2023-10-09T06:08:08;8.21;;;8.13;;
66669;SDS011;53568;52.164;4.472;2023-10-09T06:10:38;8.54;;;8.40;;
66669;SDS011;53568;52.164;4.472;2023-10-09T06:13:06;7.97;;;7.89;;
66669;SDS011;53568;52.164;4.472;2023-10-09T06:15:36;8.34;;;8.27;;
66669;SDS011;53568;52.164;4.472;2023-10-09T06:18:15;7.99;;;7.90;;
66669;SDS011;53568;52.164;4.472;2023-10-09T06:21:13;8.42;;;8.37;;
66669;SDS011;53568;52.164;4.472;2023-10-09T06:24:08;8.20;;;8.16;;
66669;SDS011;53568;52.164;4.472;2023-10-09T06:26:40;8.52;;;8.42;;
66669;SDS011;53568;52.164;4.472;2023-10-09T06:29:17;8.74;;;8.66;;
66669;SDS011;53568;52.164;4.472;2023-10-09T06:31:59;8.24;;;8.18;;
66669;SDS011;53568;52.164;4.472;2023-10-09T06:34:41;8.20;;;8.16;;
66669;SDS011;53568;52.164;4.472;2023-10-09T06:37:11;8.23;;;8.16;;
66669;SDS011;53568;52.164;4.472;2023-10-09T06:39:55;8.16;;;8.04;;
66669;SDS011;53568;52.164;4.472;2023-10-09T06:42:25;8.76;;;8.66;;
66669;SDS011;53568;52.164;4.472;2023-10-09T06:45:06;8.68;;;8.52;;
66669;SDS011;53568;52.164;4.472;2023-10-09T06:47:42;8.12;;;8.00;;
66669;SDS011;53568;52.164;4.472;2023-10-09T06:50:29;7.98;;;7.86;;
66669;SDS011;53568;52.164;4.472;2023-10-09T06:53:13;8.14;;;8.06;;
66669;SDS011;53568;52.164;4.472;2023-10-09T06:55:39;8.10;;;7.99;;
66669;SDS011;53568;52.164;4.472;2023-10-09T06:58:17;8.05;;;7.96;;
66669;SDS011;53568;52.164;4.472;2023-10-09T07:00:54;8.05;;;7.84;;
66669;SDS011;53568;52.164;4.472;2023-10-09T07:03:29;7.97;;;7.82;;
66669;SDS011;53568;52.164;4.472;2023-10-09T07:06:07;7.91;;;7.84;;
66669;SDS011;53568;52.164;4.472;2023-10-09T07:08:57;7.65;;;7.62;;
66669;SDS011;53568;52.164;4.472;2023-10-09T07:11:34;7.58;;;7.52;;
66669;SDS011;53568;52.164;4.472;2023-10-09T07:14:22;7.87;;;7.81;;
66669;SDS011;53568;52.164;4.472;2023-10-09T07:17:04;8.27;;;8.19;;
66669;SDS011;53568;52.164;4.472;2023-10-09T07:19:50;7.82;;;7.73;;
66669;SDS011;53568;52.164;4.472;2023-10-09T07:22:20;8.18;;;8.10;;
66669;SDS011;53568;52.164;4.472;2023-10-09T07:24:51;7.98;;;7.85;;
66669;SDS011;53568;52.164;4.472;2023-10-09T07:27:21;8.14;;;7.98;;
66669;SDS011;53568;52.164;4.472;2023-10-09T07:30:06;8.09;;;8.00;;
66669;SDS011;53568;52.164;4.472;2023-10-09T07:35:47;8.17;;;8.12;;
66669;SDS011;53568;52.164;4.472;2023-10-09T07:40:45;8.24;;;8.12;;
66669;SDS011;53568;52.164;4.472;2023-10-09T07:43:38;8.18;;;8.09;;
66669;SDS011;53568;52.164;4.472;2023-10-09T07:46:05;8.19;;;8.12;;
66669;SDS011;53568;52.164;4.472;2023-10-09T07:48:50;7.96;;;7.91;;
66669;SDS011;53568;52.164;4.472;2023-10-09T07:51:19;7.69;;;7.64;;
66669;SDS011;53568;52.164;4.472;2023-10-09T07:53:51;7.80;;;7.70;;
66669;SDS011;53568;52.164;4.472;2023-10-09T07:56:38;7.98;;;7.92;;
66669;SDS011;53568;52.164;4.472;2023-10-09T07:59:09;7.77;;;7.72;;
66669;SDS011;53568;52.164;4.472;2023-10-09T08:01:46;7.98;;;7.91;;
66669;SDS011;53568;52.164;4.472;2023-10-09T08:04:27;7.60;;;7.53;;
66669;SDS011;53568;52.164;4.472;2023-10-09T08:07:12;7.65;;;7.56;;
66669;SDS011;53568;52.164;4.472;2023-10-09T08:09:47;7.92;;;7.85;;
66669;SDS011;53568;52.164;4.472;2023-10-09T08:12:17;7.81;;;7.70;;
66669;SDS011;53568;52.164;4.472;2023-10-09T08:15:02;7.15;;;7.08;;
66669;SDS011;53568;52.164;4.472;2023-10-09T08:17:53;7.29;;;7.22;;
66669;SDS011;53568;52.164;4.472;2023-10-09T08:20:35;7.49;;;7.43;;
66669;SDS011;53568;52.164;4.472;2023-10-09T08:23:24;7.42;;;7.36;;
66669;SDS011;53568;52.164;4.472;2023-10-09T08:26:13;7.69;;;7.64;;
66669;SDS011;53568;52.164;4.472;2023-10-09T08:28:40;7.73;;;7.67;;
66669;SDS011;53568;52.164;4.472;2023-10-09T08:31:09;7.27;;;7.21;;
66669;SDS011;53568;52.164;4.472;2023-10-09T08:33:58;7.36;;;7.21;;
66669;SDS011;53568;52.164;4.472;2023-10-09T08:36:27;7.63;;;7.55;;
66669;SDS011;53568;52.164;4.472;2023-10-09T08:38:57;7.87;;;7.77;;
66669;SDS011;53568;52.164;4.472;2023-10-09T08:41:39;7.85;;;7.75;;
66669;SDS011;53568;52.164;4.472;2023-10-09T08:44:06;7.54;;;7.50;;
66669;SDS011;53568;52.164;4.472;2023-10-09T08:46:32;7.65;;;7.60;;
66669;SDS011;53568;52.164;4.472;2023-10-09T08:48:59;7.60;;;7.56;;
66669;SDS011;53568;52.164;4.472;2023-10-09T08:51:25;7.60;;;7.54;;
66669;SDS011;53568;52.164;4.472;2023-10-09T08:53:52;7.50;;;7.38;;
66669;SDS011;53568;52.164;4.472;2023-10-09T08:56:19;7.75;;;7.61;;
66669;SDS011;53568;52.164;4.472;2023-10-09T08:58:52;7.87;;;7.78;;
66669;SDS011;53568;52.164;4.472;2023-10-09T09:01:22;7.49;;;7.45;;
66669;SDS011;53568;52.164;4.472;2023-10-09T09:03:50;7.84;;;7.78;;
66669;SDS011;53568;52.164;4.472;2023-10-09T09:06:19;7.40;;;7.38;;
66669;SDS011;53568;52.164;4.472;2023-10-09T09:08:46;7.02;;;6.98;;
66669;SDS011;53568;52.164;4.472;2023-10-09T09:16:43;7.25;;;7.22;;
66669;SDS011;53568;52.164;4.472;2023-10-09T09:19:13;7.34;;;7.29;;
66669;SDS011;53568;52.164;4.472;2023-10-09T09:21:48;7.10;;;7.05;;
66669;SDS011;53568;52.164;4.472;2023-10-09T09:24:19;7.37;;;7.32;;
66669;SDS011;53568;52.164;4.472;2023-10-09T09:26:46;7.40;;;7.34;;
66669;SDS011;53568;52.164;4.472;2023-10-09T09:29:13;7.55;;;7.41;;
66669;SDS011;53568;52.164;4.472;2023-10-09T09:31:51;7.76;;;7.60;;
66669;SDS011;53568;52.164;4.472;2023-10-09T09:34:19;7.26;;;7.15;;
66669;SDS011;53568;52.164;4.472;2023-10-09T09:36:54;7.57;;;7.50;;
66669;SDS011;53568;52.164;4.472;2023-10-09T09:39:27;7.52;;;7.48;;
66669;SDS011;53568;52.164;4.472;2023-10-09T09:41:57;7.54;;;7.51;;
66669;SDS011;53568;52.164;4.472;2023-10-09T09:44:32;7.15;;;7.12;;
66669;SDS011;53568;52.164;4.472;2023-10-09T09:47:08;7.56;;;7.45;;
66669;SDS011;53568;52.164;4.472;2023-10-09T09:49:40;7.14;;;7.08;;
66669;SDS011;53568;52.164;4.472;2023-10-09T09:52:08;7.45;;;7.38;;
66669;SDS011;53568;52.164;4.472;2023-10-09T09:54:37;7.31;;;7.25;;
66669;SDS011;53568;52.164;4.472;2023-10-09T09:57:03;7.30;;;7.25;;
66669;SDS011;53568;52.164;4.472;2023-10-09T09:59:39;7.30;;;7.25;;
66669;SDS011;53568;52.164;4.472;2023-10-09T10:02:29;7.44;;;7.40;;
66669;SDS011;53568;52.164;4.472;2023-10-09T10:05:02;7.42;;;7.38;;
66669;SDS011;53568;52.164;4.472;2023-10-09T10:07:32;7.55;;;7.50;;
66669;SDS011;53568;52.164;4.472;2023-10-09T10:10:53;7.30;;;7.24;;
66669;SDS011;53568;52.164;4.472;2023-10-09T10:12:59;7.29;;;7.27;;
66669;SDS011;53568;52.164;4.472;2023-10-09T10:16:13;7.23;;;7.21;;
66669;SDS011;53568;52.164;4.472;2023-10-09T10:18:23;7.67;;;7.62;;
66669;SDS011;53568;52.164;4.472;2023-10-09T10:23:41;7.61;;;7.57;;
66669;SDS011;53568;52.164;4.472;2023-10-09T10:26:21;7.38;;;7.33;;
66669;SDS011;53568;52.164;4.472;2023-10-09T10:31:54;7.73;;;7.66;;
66669;SDS011;53568;52.164;4.472;2023-10-09T10:34:23;7.79;;;7.77;;
66669;SDS011;53568;52.164;4.472;2023-10-09T10:36:50;7.29;;;7.26;;
66669;SDS011;53568;52.164;4.472;2023-10-09T10:39:18;7.59;;;7.55;;
66669;SDS011;53568;52.164;4.472;2023-10-09T10:41:55;7.50;;;7.45;;
66669;SDS011;53568;52.164;4.472;2023-10-09T10:44:32;7.77;;;7.75;;
66669;SDS011;53568;52.164;4.472;2023-10-09T10:47:02;7.53;;;7.49;;
66669;SDS011;53568;52.164;4.472;2023-10-09T10:49:47;8.01;;;7.97;;
66669;SDS011;53568;52.164;4.472;2023-10-09T10:52:25;7.46;;;7.43;;
66669;SDS011;53568;52.164;4.472;2023-10-09T10:55:07;7.85;;;7.83;;
66669;SDS011;53568;52.164;4.472;2023-10-09T10:57:42;7.57;;;7.55;;
66669;SDS011;53568;52.164;4.472;2023-10-09T11:00:28;8.30;;;8.24;;
66669;SDS011;53568;52.164;4.472;2023-10-09T11:03:22;8.34;;;8.26;;
66669;SDS011;53568;52.164;4.472;2023-10-09T11:06:01;7.92;;;7.84;;
66669;SDS011;53568;52.164;4.472;2023-10-09T11:08:46;8.15;;;8.14;;
66669;SDS011;53568;52.164;4.472;2023-10-09T11:11:19;8.01;;;7.96;;
66669;SDS011;53568;52.164;4.472;2023-10-09T11:13:45;7.99;;;7.87;;
66669;SDS011;53568;52.164;4.472;2023-10-09T11:16:24;8.30;;;8.27;;
66669;SDS011;53568;52.164;4.472;2023-10-09T11:19:12;7.70;;;7.66;;
66669;SDS011;53568;52.164;4.472;2023-10-09T11:22:00;7.47;;;7.42;;
66669;SDS011;53568;52.164;4.472;2023-10-09T11:24:33;8.16;;;8.11;;
66669;SDS011;53568;52.164;4.472;2023-10-09T11:27:03;7.98;;;7.94;;
66669;SDS011;53568;52.164;4.472;2023-10-09T11:29:52;7.43;;;7.39;;
66669;SDS011;53568;52.164;4.472;2023-10-09T11:32:19;7.48;;;7.46;;
66669;SDS011;53568;52.164;4.472;2023-10-09T11:34:49;8.19;;;8.15;;
66669;SDS011;53568;52.164;4.472;2023-10-09T11:37:19;7.88;;;7.82;;
66669;SDS011;53568;52.164;4.472;2023-10-09T11:39:52;7.76;;;7.72;;
66669;SDS011;53568;52.164;4.472;2023-10-09T11:42:18;7.95;;;7.92;;
66669;SDS011;53568;52.164;4.472;2023-10-09T11:45:22;7.65;;;7.62;;
66669;SDS011;53568;52.164;4.472;2023-10-09T11:48:24;7.68;;;7.66;;
66669;SDS011;53568;52.164;4.472;2023-10-09T11:50:59;8.30;;;8.26;;
66669;SDS011;53568;52.164;4.472;2023-10-09T11:53:27;7.88;;;7.84;;
66669;SDS011;53568;52.164;4.472;2023-10-09T11:55:53;7.70;;;7.66;;
66669;SDS011;53568;52.164;4.472;2023-10-09T11:58:19;8.21;;;8.14;;
66669;SDS011;53568;52.164;4.472;2023-10-09T12:00:52;7.94;;;7.91;;
66669;SDS011;53568;52.164;4.472;2023-10-09T12:03:29;7.91;;;7.87;;
66669;SDS011;53568;52.164;4.472;2023-10-09T12:05:58;8.07;;;8.04;;
66669;SDS011;53568;52.164;4.472;2023-10-09T12:08:37;8.31;;;8.22;;
66669;SDS011;53568;52.164;4.472;2023-10-09T12:11:05;7.87;;;7.82;;
66669;SDS011;53568;52.164;4.472;2023-10-09T12:13:36;7.92;;;7.89;;
66669;SDS011;53568;52.164;4.472;2023-10-09T12:16:07;8.32;;;8.28;;
66669;SDS011;53568;52.164;4.472;2023-10-09T12:18:35;8.45;;;8.41;;
66669;SDS011;53568;52.164;4.472;2023-10-09T12:21:04;7.97;;;7.91;;
66669;SDS011;53568;52.164;4.472;2023-10-09T12:23:31;8.75;;;8.70;;
66669;SDS011;53568;52.164;4.472;2023-10-09T12:26:03;8.25;;;8.22;;
66669;SDS011;53568;52.164;4.472;2023-10-09T12:28:29;7.99;;;7.95;;
66669;SDS011;53568;52.164;4.472;2023-10-09T12:30:58;7.97;;;7.95;;
66669;SDS011;53568;52.164;4.472;2023-10-09T12:33:26;8.16;;;8.12;;
66669;SDS011;53568;52.164;4.472;2023-10-09T12:35:53;8.18;;;8.18;;
66669;SDS011;53568;52.164;4.472;2023-10-09T12:38:27;8.25;;;8.20;;
66669;SDS011;53568;52.164;4.472;2023-10-09T12:41:05;8.11;;;8.08;;
66669;SDS011;53568;52.164;4.472;2023-10-09T12:43:51;8.47;;;8.46;;
66669;SDS011;53568;52.164;4.472;2023-10-09T12:46:18;8.15;;;8.14;;
66669;SDS011;53568;52.164;4.472;2023-10-09T12:48:48;8.38;;;8.33;;
66669;SDS011;53568;52.164;4.472;2023-10-09T12:51:19;8.44;;;8.40;;
66669;SDS011;53568;52.164;4.472;2023-10-09T12:53:50;8.84;;;8.82;;
66669;SDS011;53568;52.164;4.472;2023-10-09T12:56:25;8.77;;;8.74;;
66669;SDS011;53568;52.164;4.472;2023-10-09T12:59:03;8.36;;;8.33;;
66669;SDS011;53568;52.164;4.472;2023-10-09T13:01:30;8.63;;;8.53;;
66669;SDS011;53568;52.164;4.472;2023-10-09T13:04:11;8.60;;;8.55;;
66669;SDS011;53568;52.164;4.472;2023-10-09T13:06:43;9.01;;;8.98;;
66669;SDS011;53568;52.164;4.472;2023-10-09T13:09:14;9.02;;;8.95;;
66669;SDS011;53568;52.164;4.472;2023-10-09T13:11:49;8.55;;;8.46;;
66669;SDS011;53568;52.164;4.472;2023-10-09T13:14:16;8.79;;;8.75;;
66669;SDS011;53568;52.164;4.472;2023-10-09T13:16:47;8.86;;;8.84;;
66669;SDS011;53568;52.164;4.472;2023-10-09T13:19:15;8.44;;;8.43;;
66669;SDS011;53568;52.164;4.472;2023-10-09T13:21:42;8.93;;;8.92;;
66669;SDS011;53568;52.164;4.472;2023-10-09T13:24:09;8.88;;;8.87;;
66669;SDS011;53568;52.164;4.472;2023-10-09T13:26:39;9.11;;;9.10;;
66669;SDS011;53568;52.164;4.472;2023-10-09T13:29:06;8.90;;;8.87;;
66669;SDS011;53568;52.164;4.472;2023-10-09T13:31:35;8.58;;;8.51;;
66669;SDS011;53568;52.164;4.472;2023-10-09T13:34:03;8.83;;;8.81;;
66669;SDS011;53568;52.164;4.472;2023-10-09T13:36:31;8.54;;;8.52;;
66669;SDS011;53568;52.164;4.472;2023-10-09T13:38:59;8.39;;;8.37;;
66669;SDS011;53568;52.164;4.472;2023-10-09T13:41:51;8.61;;;8.55;;
66669;SDS011;53568;52.164;4.472;2023-10-09T13:44:27;8.63;;;8.60;;
66669;SDS011;53568;52.164;4.472;2023-10-09T13:46:57;8.75;;;8.72;;
66669;SDS011;53568;52.164;4.472;2023-10-09T13:49:24;8.94;;;8.93;;
66669;SDS011;53568;52.164;4.472;2023-10-09T13:51:55;8.83;;;8.80;;
66669;SDS011;53568;52.164;4.472;2023-10-09T13:54:22;9.31;;;9.31;;
66669;SDS011;53568;52.164;4.472;2023-10-09T13:56:57;9.10;;;9.09;;
66669;SDS011;53568;52.164;4.472;2023-10-09T13:59:29;8.59;;;8.57;;
66669;SDS011;53568;52.164;4.472;2023-10-09T14:01:56;9.02;;;9.02;;
66669;SDS011;53568;52.164;4.472;2023-10-09T14:04:25;9.40;;;9.38;;
66669;SDS011;53568;52.164;4.472;2023-10-09T14:06:53;9.20;;;9.19;;
66669;SDS011;53568;52.164;4.472;2023-10-09T14:09:22;9.20;;;9.19;;
66669;SDS011;53568;52.164;4.472;2023-10-09T14:12:03;9.56;;;9.55;;
66669;SDS011;53568;52.164;4.472;2023-10-09T14:14:41;9.96;;;9.88;;
66669;SDS011;53568;52.164;4.472;2023-10-09T14:17:17;9.53;;;9.51;;
66669;SDS011;53568;52.164;4.472;2023-10-09T14:19:54;9.21;;;9.17;;
66669;SDS011;53568;52.164;4.472;2023-10-09T14:22:26;9.29;;;9.25;;
66669;SDS011;53568;52.164;4.472;2023-10-09T14:24:52;9.53;;;9.52;;
66669;SDS011;53568;52.164;4.472;2023-10-09T14:27:22;9.33;;;9.32;;
66669;SDS011;53568;52.164;4.472;2023-10-09T14:29:52;9.53;;;9.51;;
66669;SDS011;53568;52.164;4.472;2023-10-09T14:32:24;9.94;;;9.92;;
66669;SDS011;53568;52.164;4.472;2023-10-09T14:34:54;9.96;;;9.92;;
66669;SDS011;53568;52.164;4.472;2023-10-09T14:37:26;10.35;;;10.30;;
66669;SDS011;53568;52.164;4.472;2023-10-09T14:39:52;9.75;;;9.71;;
66669;SDS011;53568;52.164;4.472;2023-10-09T14:42:19;9.75;;;9.75;;
66669;SDS011;53568;52.164;4.472;2023-10-09T14:44:46;9.66;;;9.64;;
66669;SDS011;53568;52.164;4.472;2023-10-09T14:47:11;10.13;;;10.12;;
66669;SDS011;53568;52.164;4.472;2023-10-09T14:49:39;10.09;;;10.08;;
66669;SDS011;53568;52.164;4.472;2023-10-09T14:52:12;10.36;;;10.35;;
66669;SDS011;53568;52.164;4.472;2023-10-09T14:54:42;9.97;;;9.96;;
66669;SDS011;53568;52.164;4.472;2023-10-09T14:57:11;10.23;;;10.22;;
66669;SDS011;53568;52.164;4.472;2023-10-09T14:59:38;10.09;;;10.08;;
66669;SDS011;53568;52.164;4.472;2023-10-09T15:02:05;10.34;;;10.34;;
66669;SDS011;53568;52.164;4.472;2023-10-09T15:04:32;9.99;;;9.99;;
66669;SDS011;53568;52.164;4.472;2023-10-09T15:07:02;10.40;;;10.40;;
66669;SDS011;53568;52.164;4.472;2023-10-09T15:09:32;10.13;;;10.13;;
66669;SDS011;53568;52.164;4.472;2023-10-09T15:11:59;10.56;;;10.56;;
66669;SDS011;53568;52.164;4.472;2023-10-09T15:14:26;10.55;;;10.55;;
66669;SDS011;53568;52.164;4.472;2023-10-09T15:16:51;10.63;;;10.63;;
66669;SDS011;53568;52.164;4.472;2023-10-09T15:19:17;10.67;;;10.67;;
66669;SDS011;53568;52.164;4.472;2023-10-09T15:21:43;10.45;;;10.45;;
66669;SDS011;53568;52.164;4.472;2023-10-09T15:24:12;10.93;;;10.93;;
66669;SDS011;53568;52.164;4.472;2023-10-09T15:26:43;10.05;;;10.04;;
66669;SDS011;53568;52.164;4.472;2023-10-09T15:29:09;10.24;;;10.24;;
66669;SDS011;53568;52.164;4.472;2023-10-09T15:31:37;9.83;;;9.82;;
66669;SDS011;53568;52.164;4.472;2023-10-09T15:34:07;9.66;;;9.66;;
66669;SDS011;53568;52.164;4.472;2023-10-09T15:36:33;9.76;;;9.76;;
66669;SDS011;53568;52.164;4.472;2023-10-09T15:39:00;10.01;;;10.01;;
66669;SDS011;53568;52.164;4.472;2023-10-09T15:41:27;9.27;;;9.27;;
66669;SDS011;53568;52.164;4.472;2023-10-09T15:43:58;9.17;;;9.17;;